createdAt,value
2018-08-10T00:00:58.983Z,13.50
2018-08-10T00:03:31.528Z,13.80
2018-08-10T00:06:03.923Z,12.73
2018-08-10T00:08:36.375Z,13.40
2018-08-10T00:11:08.489Z,12.47
2018-08-10T00:13:41.133Z,12.63
2018-08-10T00:16:13.903Z,12.80
2018-08-10T00:18:47.209Z,13.53
2018-08-10T00:21:19.790Z,12.37
2018-08-10T00:23:52.377Z,12.83
2018-08-10T00:26:24.883Z,12.27
2018-08-10T00:28:57.561Z,12.70
2018-08-10T00:31:30.101Z,12.40
2018-08-10T00:34:02.442Z,11.93
2018-08-10T00:36:35.114Z,11.90
2018-08-10T00:39:10.089Z,11.33
2018-08-10T00:41:42.778Z,12.80
2018-08-10T00:44:15.589Z,12.20
2018-08-10T00:46:47.979Z,11.43
2018-08-10T00:49:20.442Z,11.10
2018-08-10T00:51:53.008Z,11.00
2018-08-10T00:54:25.595Z,12.40
2018-08-10T00:56:57.967Z,12.07
2018-08-10T00:59:30.612Z,12.13
2018-08-10T01:02:03.113Z,11.33
2018-08-10T01:04:35.239Z,12.80
2018-08-10T01:07:08.670Z,12.80
2018-08-10T01:09:41.191Z,12.50
2018-08-10T01:12:13.337Z,12.07
2018-08-10T01:14:45.861Z,12.40
2018-08-10T01:17:18.417Z,12.20
2018-08-10T01:19:51.015Z,12.80
2018-08-10T01:22:23.630Z,12.97
2018-08-10T01:24:56.858Z,13.63
2018-08-10T01:27:34.120Z,14.10
2018-08-10T01:30:07.607Z,13.13
2018-08-10T01:32:39.735Z,13.70
2018-08-10T01:35:12.082Z,13.50
2018-08-10T01:37:44.636Z,13.60
2018-08-10T01:40:17.060Z,14.50
2018-08-10T01:42:49.699Z,14.40
2018-08-10T01:45:22.275Z,13.77
2018-08-10T01:47:54.765Z,14.47
2018-08-10T01:50:27.769Z,14.33
2018-08-10T01:53:00.590Z,13.43
2018-08-10T01:55:33.008Z,13.80
2018-08-10T01:58:06.306Z,14.37
2018-08-10T02:00:38.627Z,13.83
2018-08-10T02:03:11.404Z,14.00
2018-08-10T02:05:43.836Z,14.50
2018-08-10T02:08:16.414Z,13.50
2018-08-10T02:10:49.454Z,13.67
2018-08-10T02:13:21.572Z,13.93
2018-08-10T02:15:53.701Z,13.03
2018-08-10T02:18:26.200Z,13.80
2018-08-10T02:20:58.531Z,13.70
2018-08-10T02:23:30.874Z,13.03
2018-08-10T02:26:03.253Z,13.67
2018-08-10T02:28:35.807Z,13.23
2018-08-10T02:31:08.471Z,13.10
2018-08-10T02:33:41.202Z,13.50
2018-08-10T02:36:13.545Z,13.00
2018-08-10T02:38:46.151Z,13.20
2018-08-10T02:41:18.455Z,13.40
2018-08-10T02:43:51.009Z,13.07
2018-08-10T02:46:24.020Z,13.47
2018-08-10T02:48:56.684Z,12.70
2018-08-10T02:51:29.035Z,14.03
2018-08-10T02:54:01.735Z,14.43
2018-08-10T02:56:34.227Z,13.77
2018-08-10T02:59:06.574Z,14.27
2018-08-10T03:01:38.858Z,14.67
2018-08-10T03:04:11.209Z,14.63
2018-08-10T03:06:43.432Z,14.47
2018-08-10T03:09:16.005Z,14.77
2018-08-10T03:11:48.717Z,15.60
2018-08-10T03:14:21.150Z,13.83
2018-08-10T03:16:53.801Z,13.80
2018-08-10T03:19:26.268Z,12.70
2018-08-10T03:21:58.676Z,13.70
2018-08-10T03:24:31.137Z,13.00
2018-08-10T03:27:03.992Z,12.40
2018-08-10T03:29:36.657Z,13.10
2018-08-10T03:32:08.818Z,13.07
2018-08-10T03:34:41.149Z,13.00
2018-08-10T03:37:13.738Z,11.33
2018-08-10T03:39:46.185Z,11.93
2018-08-10T03:42:18.684Z,12.53
2018-08-10T03:44:51.094Z,11.30
2018-08-10T03:47:23.314Z,12.60
2018-08-10T03:49:58.258Z,11.47
2018-08-10T03:52:30.859Z,12.27
2018-08-10T03:55:03.412Z,12.07
2018-08-10T03:57:35.915Z,11.10
2018-08-10T04:00:10.915Z,10.97
2018-08-10T04:02:43.553Z,9.73
2018-08-10T04:05:16.149Z,10.40
2018-08-10T04:07:48.675Z,11.10
2018-08-10T04:10:21.432Z,16.73
2018-08-10T04:12:54.468Z,11.90
2018-08-10T04:15:26.941Z,11.23
2018-08-10T04:17:59.442Z,10.50
2018-08-10T04:20:32.404Z,10.50
2018-08-10T04:23:04.939Z,10.20
2018-08-10T04:25:37.362Z,10.70
2018-08-10T04:28:09.470Z,10.07
2018-08-10T04:30:41.862Z,10.60
2018-08-10T04:33:15.231Z,10.13
2018-08-10T04:35:47.580Z,9.80
2018-08-10T04:38:19.980Z,10.33
2018-08-10T04:40:52.513Z,10.40
2018-08-10T04:43:24.799Z,9.67
2018-08-10T04:45:56.695Z,10.17
2018-08-10T04:48:28.613Z,9.17
2018-08-10T04:51:00.452Z,9.57
2018-08-10T04:53:33.783Z,9.00
2018-08-10T04:56:06.407Z,8.60
2018-08-10T04:58:38.914Z,9.43
2018-08-10T05:01:11.500Z,9.23
2018-08-10T05:03:44.148Z,9.23
2018-08-10T05:06:16.532Z,9.03
2018-08-10T05:08:49.309Z,9.30
2018-08-10T05:11:21.963Z,8.70
2018-08-10T05:13:54.549Z,9.17
2018-08-10T05:16:26.958Z,8.73
2018-08-10T05:18:59.020Z,8.50
2018-08-10T05:21:31.689Z,8.73
2018-08-10T05:24:04.250Z,9.60
2018-08-10T05:26:36.543Z,8.73
2018-08-10T05:29:08.929Z,8.60
2018-08-10T05:31:41.305Z,8.90
2018-08-10T05:34:14.206Z,9.43
2018-08-10T05:36:46.584Z,9.60
2018-08-10T05:39:19.219Z,9.57
2018-08-10T05:41:51.800Z,9.20
2018-08-10T05:44:23.902Z,9.33
2018-08-10T05:46:57.179Z,9.70
2018-08-10T05:49:30.031Z,10.67
2018-08-10T05:52:02.293Z,9.40
2018-08-10T05:54:35.240Z,9.07
2018-08-10T05:57:07.595Z,9.80
2018-08-10T05:59:40.608Z,9.57
2018-08-10T06:02:12.926Z,8.87
2018-08-10T06:04:45.484Z,9.30
2018-08-10T06:07:17.952Z,8.60
2018-08-10T06:09:50.505Z,9.60
2018-08-10T06:12:22.786Z,9.10
2018-08-10T06:14:55.591Z,9.30
2018-08-10T06:17:28.274Z,9.57
2018-08-10T06:20:00.800Z,8.60
2018-08-10T06:22:33.263Z,8.73
2018-08-10T06:25:05.601Z,8.77
2018-08-10T06:27:37.966Z,8.67
2018-08-10T06:30:13.301Z,8.70
2018-08-10T06:32:45.802Z,7.67
2018-08-10T06:35:18.585Z,8.93
2018-08-10T06:37:51.708Z,8.10
2018-08-10T06:40:24.548Z,7.50
2018-08-10T06:42:56.922Z,7.90
2018-08-10T06:45:29.064Z,7.17
2018-08-10T06:48:01.286Z,7.67
2018-08-10T06:50:33.671Z,7.30
2018-08-10T06:53:06.371Z,7.30
2018-08-10T06:55:39.141Z,7.50
2018-08-10T06:58:11.449Z,7.23
2018-08-10T07:00:43.800Z,6.40
2018-08-10T07:03:16.775Z,6.87
2018-08-10T07:05:49.024Z,6.97
2018-08-10T07:08:21.484Z,7.13
2018-08-10T07:10:53.600Z,6.57
2018-08-10T07:13:26.183Z,6.80
2018-08-10T07:15:58.465Z,6.77
2018-08-10T07:18:31.208Z,7.20
2018-08-10T07:21:03.633Z,6.83
2018-08-10T07:23:35.860Z,6.73
2018-08-10T07:26:08.401Z,7.60
2018-08-10T07:28:40.747Z,9.47
2018-08-10T07:31:13.045Z,7.90
2018-08-10T07:33:45.652Z,6.80
2018-08-10T07:36:17.783Z,6.47
2018-08-10T07:38:50.649Z,5.70
2018-08-10T07:41:23.166Z,5.73
2018-08-10T07:43:55.552Z,6.30
2018-08-10T07:46:28.210Z,5.60
2018-08-10T07:49:00.620Z,5.43
2018-08-10T07:51:33.256Z,5.23
2018-08-10T07:54:05.884Z,6.10
2018-08-10T07:56:38.820Z,4.90
2018-08-10T07:59:11.693Z,6.07
2018-08-10T08:01:44.211Z,6.10
2018-08-10T08:04:16.640Z,5.00
2018-08-10T08:06:48.912Z,5.90
2018-08-10T08:09:21.911Z,5.63
2018-08-10T08:11:54.716Z,5.43
2018-08-10T08:14:26.900Z,5.20
2018-08-10T08:16:59.148Z,5.37
2018-08-10T08:19:31.660Z,5.80
2018-08-10T08:22:26.508Z,5.97
2018-08-10T08:24:59.100Z,5.80
2018-08-10T08:27:31.900Z,5.53
2018-08-10T08:30:04.783Z,6.03
2018-08-10T08:32:37.515Z,5.97
2018-08-10T08:35:10.556Z,7.83
2018-08-10T08:37:43.430Z,7.13
2018-08-10T08:40:26.764Z,5.73
2018-08-10T08:42:59.205Z,6.80
2018-08-10T08:45:41.069Z,6.07
2018-08-10T08:48:14.761Z,5.70
2018-08-10T08:50:48.990Z,5.80
2018-08-10T08:53:21.275Z,6.27
2018-08-10T08:56:03.010Z,5.90
2018-08-10T08:58:35.857Z,5.13
2018-08-10T09:01:08.907Z,5.30
2018-08-10T09:03:50.299Z,5.40
2018-08-10T09:06:22.633Z,5.33
2018-08-10T09:10:03.071Z,5.50
2018-08-10T09:12:35.491Z,5.13
2018-08-10T09:15:11.029Z,5.90
2018-08-10T09:17:43.608Z,5.30
2018-08-10T09:20:16.433Z,5.03
2018-08-10T09:22:49.099Z,4.90
2018-08-10T09:25:21.318Z,5.30
2018-08-10T09:27:54.384Z,5.50
2018-08-10T09:30:27.096Z,6.90
2018-08-10T09:32:59.877Z,5.27
2018-08-10T09:35:32.399Z,5.33
2018-08-10T09:38:05.001Z,5.40
2018-08-10T09:40:37.477Z,5.30
2018-08-10T09:43:09.780Z,5.40
2018-08-10T09:45:42.085Z,4.93
2018-08-10T09:48:14.943Z,4.97
2018-08-10T09:50:47.317Z,5.20
2018-08-10T09:53:19.702Z,5.30
2018-08-10T09:55:51.866Z,5.40
2018-08-10T09:58:24.870Z,5.30
2018-08-10T10:01:01.422Z,4.77
2018-08-10T10:03:33.817Z,4.80
2018-08-10T10:06:06.910Z,5.43
2018-08-10T10:08:39.133Z,5.63
2018-08-10T10:11:12.596Z,5.00
2018-08-10T10:13:44.981Z,5.63
2018-08-10T10:16:17.529Z,5.10
2018-08-10T10:18:50.096Z,5.50
2018-08-10T10:21:22.382Z,5.30
2018-08-10T10:23:54.680Z,5.00
2018-08-10T10:26:27.042Z,5.03
2018-08-10T10:28:59.611Z,5.60
2018-08-10T10:31:32.067Z,4.90
2018-08-10T10:34:04.535Z,5.63
2018-08-10T10:36:36.941Z,6.17
2018-08-10T10:39:13.365Z,5.67
2018-08-10T10:41:46.139Z,5.40
2018-08-10T10:44:18.355Z,5.40
2018-08-10T10:46:50.687Z,4.60
2018-08-10T10:49:22.932Z,5.47
2018-08-10T10:51:55.021Z,4.97
2018-08-10T10:54:27.974Z,5.87
2018-08-10T10:57:00.817Z,5.67
2018-08-10T10:59:33.150Z,5.57
2018-08-10T11:02:05.908Z,5.40
2018-08-10T11:04:38.118Z,4.97
2018-08-10T11:07:10.761Z,6.17
2018-08-10T11:09:43.159Z,5.90
2018-08-10T11:12:15.561Z,5.83
2018-08-10T11:14:47.725Z,5.50
2018-08-10T11:17:19.907Z,6.00
2018-08-10T11:19:52.035Z,5.93
2018-08-10T11:22:24.596Z,5.50
2018-08-10T11:24:56.972Z,5.67
2018-08-10T11:27:29.572Z,5.93
2018-08-10T11:30:02.100Z,6.23
2018-08-10T11:32:34.492Z,6.10
2018-08-10T11:35:07.143Z,6.10
2018-08-10T11:37:39.739Z,5.77
2018-08-10T11:40:15.719Z,6.00
2018-08-10T11:42:48.513Z,5.80
2018-08-10T11:45:20.958Z,5.30
2018-08-10T11:47:53.219Z,5.30
2018-08-10T11:50:26.477Z,5.60
2018-08-10T11:52:59.097Z,5.67
2018-08-10T11:55:31.575Z,5.73
2018-08-10T11:58:03.976Z,5.70
2018-08-10T12:00:36.429Z,5.27
2018-08-10T12:03:09.239Z,5.60
2018-08-10T12:05:42.081Z,5.90
2018-08-10T12:08:14.409Z,6.43
2018-08-10T12:10:46.766Z,7.07
2018-08-10T12:13:19.325Z,6.80
2018-08-10T12:15:52.943Z,6.50
2018-08-10T12:18:25.678Z,8.30
2018-08-10T12:20:58.795Z,8.10
2018-08-10T12:23:32.085Z,7.77
2018-08-10T12:26:04.690Z,8.40
2018-08-10T12:28:37.444Z,8.57
2018-08-10T12:31:09.744Z,9.87
2018-08-10T12:33:41.880Z,9.80
2018-08-10T12:36:14.310Z,9.50
2018-08-10T12:38:46.426Z,9.87
2018-08-10T12:41:18.649Z,9.53
2018-08-10T12:43:50.757Z,11.07
2018-08-10T12:46:23.321Z,10.63
2018-08-10T12:48:55.706Z,10.00
2018-08-10T12:51:27.906Z,10.90
2018-08-10T12:54:00.412Z,10.87
2018-08-10T12:56:33.034Z,10.10
2018-08-10T12:59:05.209Z,11.83
2018-08-10T13:01:37.500Z,11.03
2018-08-10T13:04:10.359Z,12.30
2018-08-10T13:06:42.527Z,10.57
2018-08-10T13:09:15.454Z,10.90
2018-08-10T13:11:47.864Z,10.27
2018-08-10T13:14:20.234Z,12.07
2018-08-10T13:16:52.561Z,11.10
2018-08-10T13:19:24.985Z,12.53
2018-08-10T13:21:57.789Z,10.47
2018-08-10T13:24:30.133Z,11.77
2018-08-10T13:27:02.317Z,11.13
2018-08-10T13:29:34.505Z,11.17
2018-08-10T13:32:07.132Z,10.13
2018-08-10T13:34:39.578Z,11.07
2018-08-10T13:37:11.867Z,11.13
2018-08-10T13:39:44.151Z,9.93
2018-08-10T13:42:16.520Z,10.40
2018-08-10T13:44:48.969Z,10.27
2018-08-10T13:47:21.233Z,10.20
2018-08-10T13:49:53.366Z,10.17
2018-08-10T13:52:25.796Z,9.80
2018-08-10T13:58:21.075Z,9.20
2018-08-10T14:00:53.724Z,8.40
2018-08-10T14:03:26.445Z,8.60
2018-08-10T14:05:59.277Z,7.63
2018-08-10T14:08:31.582Z,8.33
2018-08-10T14:11:03.953Z,8.23
2018-08-10T14:13:36.616Z,7.27
2018-08-10T14:16:09.028Z,6.43
2018-08-10T14:18:41.308Z,7.47
2018-08-10T14:21:14.047Z,7.70
2018-08-10T14:23:46.634Z,8.00
2018-08-10T14:26:19.203Z,7.07
2018-08-10T14:28:51.559Z,7.83
2018-08-10T14:31:23.960Z,7.87
2018-08-10T14:33:56.677Z,8.07
2018-08-10T14:36:29.233Z,7.60
2018-08-10T14:39:01.515Z,7.40
2018-08-10T14:41:33.921Z,6.20
2018-08-10T14:44:06.529Z,6.00
2018-08-10T14:46:39.030Z,5.93
2018-08-10T14:49:11.813Z,6.30
2018-08-10T14:51:46.687Z,5.13
2018-08-10T14:54:19.472Z,6.17
2018-08-10T14:56:51.983Z,5.30
2018-08-10T14:59:24.700Z,4.97
2018-08-10T15:01:56.815Z,5.23
2018-08-10T15:04:29.035Z,5.60
2018-08-10T15:07:01.746Z,5.80
2018-08-10T15:09:34.027Z,5.10
2018-08-10T15:12:07.394Z,4.53
2018-08-10T15:14:39.743Z,4.63
2018-08-10T15:17:13.149Z,4.80
2018-08-10T15:19:45.875Z,4.90
2018-08-10T15:22:18.342Z,4.37
2018-08-10T15:24:50.517Z,5.10
2018-08-10T15:27:23.044Z,4.67
2018-08-10T15:29:55.519Z,4.60
2018-08-10T15:32:27.572Z,4.87
2018-08-10T15:35:00.030Z,4.50
2018-08-10T15:37:32.151Z,4.80
2018-08-10T15:40:05.574Z,4.97
2018-08-10T15:42:38.533Z,4.97
2018-08-10T15:45:14.451Z,5.03
2018-08-10T15:47:47.291Z,4.23
2018-08-10T15:50:20.003Z,4.50
2018-08-10T15:52:52.282Z,4.80
2018-08-10T15:55:24.788Z,5.10
2018-08-10T15:57:57.722Z,4.10
2018-08-10T16:00:30.068Z,4.20
2018-08-10T16:03:02.599Z,4.70
2018-08-10T16:05:35.305Z,4.00
2018-08-10T16:08:08.418Z,4.10
2018-08-10T16:10:40.563Z,4.00
2018-08-10T16:13:13.197Z,3.53
2018-08-10T16:15:45.699Z,3.60
2018-08-10T16:18:18.123Z,4.20
2018-08-10T16:20:50.733Z,3.90
2018-08-10T16:23:23.023Z,3.73
2018-08-10T16:25:55.772Z,3.83
2018-08-10T16:28:28.192Z,3.90
2018-08-10T16:31:00.594Z,4.17
2018-08-10T16:33:33.323Z,3.87
2018-08-10T16:36:06.495Z,3.73
2018-08-10T16:38:39.265Z,3.93
2018-08-10T16:41:11.667Z,4.23
2018-08-10T16:43:44.364Z,4.80
2018-08-10T16:46:16.907Z,4.93
2018-08-10T16:48:49.546Z,3.80
2018-08-10T16:51:22.067Z,4.97
2018-08-10T16:53:54.327Z,4.60
2018-08-10T16:56:26.737Z,4.93
2018-08-10T16:58:59.097Z,4.57
2018-08-10T17:01:31.639Z,5.00
2018-08-10T17:04:04.667Z,4.50
2018-08-10T17:06:37.026Z,4.33
2018-08-10T17:09:11.518Z,4.47
2018-08-10T17:11:43.793Z,4.83
2018-08-10T17:14:16.390Z,4.50
2018-08-10T17:16:48.964Z,4.43
2018-08-10T17:19:21.564Z,4.57
2018-08-10T17:21:54.084Z,5.00
2018-08-10T17:24:26.335Z,4.30
2018-08-10T17:26:58.899Z,5.10
2018-08-10T17:29:31.123Z,4.30
2018-08-10T17:32:03.698Z,4.57
2018-08-10T17:34:36.176Z,4.90
2018-08-10T17:37:08.664Z,4.70
2018-08-10T17:39:41.144Z,4.53
2018-08-10T17:42:13.738Z,5.00
2018-08-10T17:44:48.951Z,5.13
2018-08-10T17:47:21.554Z,4.80
2018-08-10T17:49:54.209Z,4.87
2018-08-10T17:52:27.159Z,5.03
2018-08-10T17:55:00.100Z,5.80
2018-08-10T17:57:33.429Z,4.30
2018-08-10T18:00:07.623Z,5.07
2018-08-10T18:02:40.772Z,5.27
2018-08-10T18:05:14.494Z,5.90
2018-08-10T18:07:47.376Z,5.73
2018-08-10T18:10:20.434Z,4.97
2018-08-10T18:12:53.204Z,5.70
2018-08-10T18:15:26.020Z,5.30
2018-08-10T18:17:58.925Z,5.40
2018-08-10T18:20:31.465Z,4.37
2018-08-10T18:23:04.127Z,5.00
2018-08-10T18:25:36.949Z,4.70
2018-08-10T18:28:09.350Z,4.60
2018-08-10T18:30:41.938Z,4.37
2018-08-10T18:33:14.253Z,5.07
2018-08-10T18:35:46.974Z,4.23
2018-08-10T18:38:19.204Z,5.47
2018-08-10T18:40:52.512Z,5.50
2018-08-10T18:43:25.526Z,4.80
2018-08-10T18:45:57.886Z,4.57
2018-08-10T18:48:30.318Z,4.77
2018-08-10T18:51:02.998Z,4.67
2018-08-10T18:53:35.993Z,4.70
2018-08-10T18:56:09.039Z,3.90
2018-08-10T18:58:41.700Z,4.30
2018-08-10T19:01:14.095Z,4.67
2018-08-10T19:03:46.607Z,4.80
2018-08-10T19:06:19.203Z,4.27
2018-08-10T19:08:51.921Z,4.33
2018-08-10T19:11:24.664Z,4.00
2018-08-10T19:13:57.296Z,4.23
2018-08-10T19:16:29.527Z,4.40
2018-08-10T19:19:02.307Z,4.17
2018-08-10T19:21:35.074Z,4.90
2018-08-10T19:24:07.203Z,4.10
2018-08-10T19:26:40.205Z,4.20
2018-08-10T19:29:12.385Z,4.30
2018-08-10T19:31:44.983Z,4.40
2018-08-10T19:34:17.290Z,3.43
2018-08-10T19:36:49.776Z,3.90
2018-08-10T19:39:22.666Z,3.77
2018-08-10T19:41:55.270Z,3.70
2018-08-10T19:44:27.874Z,3.37
2018-08-10T19:47:00.178Z,2.83
2018-08-10T19:49:32.950Z,3.80
2018-08-10T19:52:05.650Z,3.63
2018-08-10T19:57:15.297Z,3.80
2018-08-10T19:59:48.233Z,3.60
2018-08-10T20:02:20.913Z,3.90
2018-08-10T20:04:53.447Z,3.23
2018-08-10T20:07:25.741Z,2.90
2018-08-10T20:09:58.051Z,3.40
2018-08-10T20:12:31.059Z,3.80
2018-08-10T20:15:03.750Z,3.67
2018-08-10T20:17:36.190Z,3.50
2018-08-10T20:20:09.710Z,3.83
2018-08-10T20:22:42.128Z,3.50
2018-08-10T20:25:15.659Z,4.00
2018-08-10T20:27:48.420Z,3.80
2018-08-10T20:30:21.086Z,4.23
2018-08-10T20:32:54.046Z,4.20
2018-08-10T20:35:26.503Z,4.97
2018-08-10T20:37:58.894Z,5.40
2018-08-10T20:40:31.381Z,4.30
2018-08-10T20:43:04.201Z,4.17
2018-08-10T20:45:36.927Z,4.20
2018-08-10T20:48:09.821Z,5.33
2018-08-10T20:50:42.632Z,5.57
2018-08-10T20:53:15.384Z,5.70
2018-08-10T20:55:48.177Z,4.60
2018-08-10T20:58:20.862Z,4.80
2018-08-10T21:00:53.281Z,4.70
2018-08-10T21:03:25.504Z,4.53
2018-08-10T21:05:58.050Z,4.83
2018-08-10T21:08:30.632Z,4.93
2018-08-10T21:11:03.237Z,4.70
2018-08-10T21:13:35.638Z,5.40
2018-08-10T21:16:08.450Z,5.00
2018-08-10T21:18:40.901Z,5.47
2018-08-10T21:21:13.297Z,5.13
2018-08-10T21:23:45.538Z,5.53
2018-08-10T21:26:18.259Z,6.37
2018-08-10T21:28:50.435Z,6.63
2018-08-10T21:31:22.800Z,6.83
2018-08-10T21:33:55.960Z,6.30
2018-08-10T21:36:28.667Z,6.63
2018-08-10T21:39:01.552Z,6.83
2018-08-10T21:41:34.444Z,7.63
2018-08-10T21:44:06.601Z,7.50
2018-08-10T21:46:38.911Z,8.17
2018-08-10T21:49:11.314Z,8.03
2018-08-10T21:51:43.772Z,8.30
2018-08-10T21:54:15.846Z,7.70
2018-08-10T21:56:48.553Z,7.17
2018-08-10T21:59:21.024Z,7.20
2018-08-10T22:01:53.834Z,8.00
2018-08-10T22:04:26.342Z,8.40
2018-08-10T22:06:58.732Z,9.07
2018-08-10T22:09:30.974Z,8.40
2018-08-10T22:12:03.351Z,8.93
2018-08-10T22:14:40.640Z,8.70
2018-08-10T22:17:17.446Z,7.97
2018-08-10T22:19:50.322Z,8.97
2018-08-10T22:22:22.491Z,10.07
2018-08-10T22:24:55.107Z,10.20
2018-08-10T22:27:27.253Z,10.40
2018-08-10T22:29:59.732Z,9.83
2018-08-10T22:32:32.052Z,10.13
2018-08-10T22:35:04.496Z,9.93
2018-08-10T22:37:36.598Z,10.47
2018-08-10T22:40:09.894Z,10.30
2018-08-10T22:42:42.800Z,11.07
2018-08-10T22:45:15.037Z,9.83
2018-08-10T22:47:47.501Z,11.13
2018-08-10T22:50:19.876Z,10.70
2018-08-10T22:52:52.699Z,10.40
2018-08-10T22:55:24.961Z,10.40
2018-08-10T22:57:57.492Z,8.80
2018-08-10T23:00:29.960Z,8.63
2018-08-10T23:03:02.268Z,8.77
2018-08-10T23:05:35.002Z,9.33
2018-08-10T23:08:07.675Z,9.40
2018-08-10T23:10:40.166Z,10.30
2018-08-10T23:13:12.595Z,10.30
2018-08-10T23:15:45.659Z,9.90
2018-08-10T23:18:18.321Z,8.37
2018-08-10T23:20:50.471Z,9.73
2018-08-10T23:23:22.655Z,10.10
2018-08-10T23:25:54.931Z,9.60
2018-08-10T23:28:27.199Z,9.43
2018-08-10T23:30:59.734Z,9.80
2018-08-10T23:33:32.144Z,9.83
2018-08-10T23:36:04.510Z,9.67
2018-08-10T23:38:37.007Z,10.40
2018-08-10T23:41:09.243Z,10.07
2018-08-10T23:43:42.035Z,9.47
2018-08-10T23:46:14.503Z,9.50
2018-08-10T23:48:46.900Z,9.77
2018-08-10T23:51:19.188Z,8.67
2018-08-10T23:53:52.147Z,9.53
2018-08-10T23:56:24.796Z,10.20
2018-08-10T23:58:57.289Z,9.00
